Terminal Aerodrome Forecast
Issued by NWS Wilmington, OH

Home | Current Version | Previous Version | Text Only | Print | Product List | Glossary On
Versions: 1 2 3 4 5 6 7 8 9 10 11 12 13 14 15 16 17 18 19 20 21 22 23 24 25 26 27 28 29 30 31 32 33 34
000
FTUS41 KILN 010859 AAD
TAFILN
TAF AMD
KILN 010859Z 0109/0206 11004KT P6SM BKN090
     FM011300 19005KT P6SM SCT015 BKN250
     FM011800 21008KT P6SM VCSH BKN035
     FM020000 18004KT P6SM SCT025 BKN250=

USA.gov is the U.S. government's official web portal to all federal, state and local government web resources and services.